sensor_id;sensor_type;location;lat;lon;timestamp;P1;durP1;ratioP1;P2;durP2;ratioP2
6378;SDS011;3222;48.858;10.128;2023-11-21T00:01:18;3.70;;;2.03;;
6378;SDS011;3222;48.858;10.128;2023-11-21T00:03:44;3.70;;;2.03;;
6378;SDS011;3222;48.858;10.128;2023-11-21T00:06:10;3.07;;;2.00;;
6378;SDS011;3222;48.858;10.128;2023-11-21T00:08:36;2.27;;;2.10;;
6378;SDS011;3222;48.858;10.128;2023-11-21T00:11:02;3.97;;;2.53;;
6378;SDS011;3222;48.858;10.128;2023-11-21T00:13:31;2.77;;;2.03;;
6378;SDS011;3222;48.858;10.128;2023-11-21T00:15:57;4.00;;;2.70;;
6378;SDS011;3222;48.858;10.128;2023-11-21T00:18:24;3.77;;;2.57;;
6378;SDS011;3222;48.858;10.128;2023-11-21T00:20:49;3.70;;;2.23;;
6378;SDS011;3222;48.858;10.128;2023-11-21T00:23:15;1.90;;;1.80;;
6378;SDS011;3222;48.858;10.128;2023-11-21T00:25:41;2.70;;;1.70;;
6378;SDS011;3222;48.858;10.128;2023-11-21T00:28:07;1.80;;;1.60;;
6378;SDS011;3222;48.858;10.128;2023-11-21T00:30:33;2.53;;;1.27;;
6378;SDS011;3222;48.858;10.128;2023-11-21T00:32:58;1.57;;;1.37;;
6378;SDS011;3222;48.858;10.128;2023-11-21T00:35:24;2.23;;;1.40;;
6378;SDS011;3222;48.858;10.128;2023-11-21T00:37:50;1.20;;;1.20;;
6378;SDS011;3222;48.858;10.128;2023-11-21T00:40:16;3.07;;;1.20;;
6378;SDS011;3222;48.858;10.128;2023-11-21T00:42:46;1.30;;;1.20;;
6378;SDS011;3222;48.858;10.128;2023-11-21T00:45:12;1.50;;;1.30;;
6378;SDS011;3222;48.858;10.128;2023-11-21T00:47:38;1.80;;;1.30;;
6378;SDS011;3222;48.858;10.128;2023-11-21T00:50:05;1.60;;;1.30;;
6378;SDS011;3222;48.858;10.128;2023-11-21T00:52:32;1.50;;;1.40;;
6378;SDS011;3222;48.858;10.128;2023-11-21T00:54:58;1.63;;;1.30;;
6378;SDS011;3222;48.858;10.128;2023-11-21T00:57:25;1.43;;;1.23;;
6378;SDS011;3222;48.858;10.128;2023-11-21T00:59:51;1.40;;;1.30;;
6378;SDS011;3222;48.858;10.128;2023-11-21T01:02:18;1.87;;;1.30;;
6378;SDS011;3222;48.858;10.128;2023-11-21T01:04:43;1.83;;;1.13;;
6378;SDS011;3222;48.858;10.128;2023-11-21T01:07:09;1.23;;;1.10;;
6378;SDS011;3222;48.858;10.128;2023-11-21T01:09:35;2.07;;;1.10;;
6378;SDS011;3222;48.858;10.128;2023-11-21T01:12:00;1.47;;;1.20;;
6378;SDS011;3222;48.858;10.128;2023-11-21T01:14:26;1.43;;;1.10;;
6378;SDS011;3222;48.858;10.128;2023-11-21T01:16:52;1.20;;;1.20;;
6378;SDS011;3222;48.858;10.128;2023-11-21T01:19:18;1.13;;;1.03;;
6378;SDS011;3222;48.858;10.128;2023-11-21T01:21:44;2.83;;;1.20;;
6378;SDS011;3222;48.858;10.128;2023-11-21T01:24:10;1.60;;;1.10;;
6378;SDS011;3222;48.858;10.128;2023-11-21T01:26:35;1.30;;;1.20;;
6378;SDS011;3222;48.858;10.128;2023-11-21T01:29:01;1.10;;;1.00;;
6378;SDS011;3222;48.858;10.128;2023-11-21T01:31:27;1.30;;;1.20;;
6378;SDS011;3222;48.858;10.128;2023-11-21T01:33:55;1.83;;;1.10;;
6378;SDS011;3222;48.858;10.128;2023-11-21T01:36:21;1.27;;;1.17;;
6378;SDS011;3222;48.858;10.128;2023-11-21T01:38:46;2.77;;;1.20;;
6378;SDS011;3222;48.858;10.128;2023-11-21T01:41:13;2.37;;;1.27;;
6378;SDS011;3222;48.858;10.128;2023-11-21T01:43:40;1.10;;;1.10;;
6378;SDS011;3222;48.858;10.128;2023-11-21T01:46:06;2.00;;;1.20;;
6378;SDS011;3222;48.858;10.128;2023-11-21T01:48:34;1.77;;;1.47;;
6378;SDS011;3222;48.858;10.128;2023-11-21T01:51:01;2.03;;;1.30;;
6378;SDS011;3222;48.858;10.128;2023-11-21T01:53:27;2.13;;;1.50;;
6378;SDS011;3222;48.858;10.128;2023-11-21T01:55:53;1.43;;;1.33;;
6378;SDS011;3222;48.858;10.128;2023-11-21T01:58:21;2.60;;;1.13;;
6378;SDS011;3222;48.858;10.128;2023-11-21T02:00:47;7.13;;;1.60;;
6378;SDS011;3222;48.858;10.128;2023-11-21T02:03:16;4.37;;;1.50;;
6378;SDS011;3222;48.858;10.128;2023-11-21T02:05:42;2.77;;;1.50;;
6378;SDS011;3222;48.858;10.128;2023-11-21T02:08:08;4.57;;;1.50;;
6378;SDS011;3222;48.858;10.128;2023-11-21T02:10:34;2.00;;;1.50;;
6378;SDS011;3222;48.858;10.128;2023-11-21T02:13:02;2.47;;;1.60;;
6378;SDS011;3222;48.858;10.128;2023-11-21T02:15:28;1.50;;;1.40;;
6378;SDS011;3222;48.858;10.128;2023-11-21T02:17:54;3.13;;;1.60;;
6378;SDS011;3222;48.858;10.128;2023-11-21T02:20:21;2.43;;;1.40;;
6378;SDS011;3222;48.858;10.128;2023-11-21T02:22:53;2.17;;;1.97;;
6378;SDS011;3222;48.858;10.128;2023-11-21T02:25:24;3.00;;;1.70;;
6378;SDS011;3222;48.858;10.128;2023-11-21T02:27:53;2.67;;;2.00;;
6378;SDS011;3222;48.858;10.128;2023-11-21T02:30:20;2.00;;;1.60;;
6378;SDS011;3222;48.858;10.128;2023-11-21T02:32:47;3.20;;;2.20;;
6378;SDS011;3222;48.858;10.128;2023-11-21T02:35:14;2.20;;;1.97;;
6378;SDS011;3222;48.858;10.128;2023-11-21T02:37:41;4.37;;;2.23;;
6378;SDS011;3222;48.858;10.128;2023-11-21T02:40:10;2.40;;;1.73;;
6378;SDS011;3222;48.858;10.128;2023-11-21T02:42:38;3.07;;;1.87;;
6378;SDS011;3222;48.858;10.128;2023-11-21T02:45:05;2.90;;;1.80;;
6378;SDS011;3222;48.858;10.128;2023-11-21T02:47:32;3.30;;;1.87;;
6378;SDS011;3222;48.858;10.128;2023-11-21T02:49:58;4.97;;;1.50;;
6378;SDS011;3222;48.858;10.128;2023-11-21T02:52:24;2.60;;;1.90;;
6378;SDS011;3222;48.858;10.128;2023-11-21T02:54:50;4.03;;;1.80;;
6378;SDS011;3222;48.858;10.128;2023-11-21T02:57:16;3.67;;;1.50;;
6378;SDS011;3222;48.858;10.128;2023-11-21T02:59:42;1.47;;;1.33;;
6378;SDS011;3222;48.858;10.128;2023-11-21T03:02:07;3.27;;;1.90;;
6378;SDS011;3222;48.858;10.128;2023-11-21T03:04:34;2.47;;;1.90;;
6378;SDS011;3222;48.858;10.128;2023-11-21T03:07:00;3.67;;;1.70;;
6378;SDS011;3222;48.858;10.128;2023-11-21T03:09:26;1.60;;;1.50;;
6378;SDS011;3222;48.858;10.128;2023-11-21T03:11:53;1.90;;;1.80;;
6378;SDS011;3222;48.858;10.128;2023-11-21T03:14:20;1.93;;;1.70;;
6378;SDS011;3222;48.858;10.128;2023-11-21T03:16:46;3.30;;;1.60;;
6378;SDS011;3222;48.858;10.128;2023-11-21T03:19:12;1.57;;;1.47;;
6378;SDS011;3222;48.858;10.128;2023-11-21T03:21:40;2.63;;;1.80;;
6378;SDS011;3222;48.858;10.128;2023-11-21T03:24:05;2.47;;;1.70;;
6378;SDS011;3222;48.858;10.128;2023-11-21T03:26:32;1.97;;;1.67;;
6378;SDS011;3222;48.858;10.128;2023-11-21T03:28:58;3.20;;;1.60;;
6378;SDS011;3222;48.858;10.128;2023-11-21T03:31:24;1.77;;;1.67;;
6378;SDS011;3222;48.858;10.128;2023-11-21T03:33:50;3.03;;;1.60;;
6378;SDS011;3222;48.858;10.128;2023-11-21T03:36:17;1.67;;;1.57;;
6378;SDS011;3222;48.858;10.128;2023-11-21T03:38:43;1.57;;;1.47;;
6378;SDS011;3222;48.858;10.128;2023-11-21T03:41:08;1.67;;;1.57;;
6378;SDS011;3222;48.858;10.128;2023-11-21T03:43:37;1.83;;;1.50;;
6378;SDS011;3222;48.858;10.128;2023-11-21T03:46:03;5.63;;;1.53;;
6378;SDS011;3222;48.858;10.128;2023-11-21T03:48:29;1.50;;;1.40;;
6378;SDS011;3222;48.858;10.128;2023-11-21T03:50:55;1.37;;;1.23;;
6378;SDS011;3222;48.858;10.128;2023-11-21T03:53:21;1.70;;;1.40;;
6378;SDS011;3222;48.858;10.128;2023-11-21T03:55:46;1.50;;;1.50;;
6378;SDS011;3222;48.858;10.128;2023-11-21T03:58:12;1.57;;;1.47;;
6378;SDS011;3222;48.858;10.128;2023-11-21T04:00:38;1.73;;;1.63;;
6378;SDS011;3222;48.858;10.128;2023-11-21T04:03:04;2.80;;;1.57;;
6378;SDS011;3222;48.858;10.128;2023-11-21T04:05:30;2.03;;;1.70;;
6378;SDS011;3222;48.858;10.128;2023-11-21T04:07:56;1.87;;;1.60;;
6378;SDS011;3222;48.858;10.128;2023-11-21T04:10:21;2.23;;;1.50;;
6378;SDS011;3222;48.858;10.128;2023-11-21T04:12:47;1.77;;;1.67;;
6378;SDS011;3222;48.858;10.128;2023-11-21T04:15:13;1.57;;;1.47;;
6378;SDS011;3222;48.858;10.128;2023-11-21T04:17:39;1.53;;;1.40;;
6378;SDS011;3222;48.858;10.128;2023-11-21T04:20:06;1.60;;;1.50;;
6378;SDS011;3222;48.858;10.128;2023-11-21T04:22:41;1.73;;;1.53;;
6378;SDS011;3222;48.858;10.128;2023-11-21T04:25:11;1.63;;;1.40;;
6378;SDS011;3222;48.858;10.128;2023-11-21T04:27:39;2.23;;;1.40;;
6378;SDS011;3222;48.858;10.128;2023-11-21T04:30:06;1.83;;;1.47;;
6378;SDS011;3222;48.858;10.128;2023-11-21T04:32:32;2.10;;;1.90;;
6378;SDS011;3222;48.858;10.128;2023-11-21T04:34:58;1.97;;;1.77;;
6378;SDS011;3222;48.858;10.128;2023-11-21T04:37:24;1.63;;;1.53;;
6378;SDS011;3222;48.858;10.128;2023-11-21T04:39:49;2.10;;;1.40;;
6378;SDS011;3222;48.858;10.128;2023-11-21T04:42:15;1.90;;;1.70;;
6378;SDS011;3222;48.858;10.128;2023-11-21T04:44:41;1.87;;;1.47;;
6378;SDS011;3222;48.858;10.128;2023-11-21T04:47:07;2.53;;;1.43;;
6378;SDS011;3222;48.858;10.128;2023-11-21T04:49:33;2.20;;;1.60;;
6378;SDS011;3222;48.858;10.128;2023-11-21T04:51:59;1.80;;;1.60;;
6378;SDS011;3222;48.858;10.128;2023-11-21T04:54:25;1.83;;;1.47;;
6378;SDS011;3222;48.858;10.128;2023-11-21T04:56:51;1.33;;;1.27;;
6378;SDS011;3222;48.858;10.128;2023-11-21T04:59:16;1.50;;;1.40;;
6378;SDS011;3222;48.858;10.128;2023-11-21T05:01:42;1.40;;;1.30;;
6378;SDS011;3222;48.858;10.128;2023-11-21T05:04:08;1.60;;;1.37;;
6378;SDS011;3222;48.858;10.128;2023-11-21T05:06:34;1.63;;;1.33;;
6378;SDS011;3222;48.858;10.128;2023-11-21T05:09:00;1.60;;;1.50;;
6378;SDS011;3222;48.858;10.128;2023-11-21T05:11:26;2.60;;;1.33;;
6378;SDS011;3222;48.858;10.128;2023-11-21T05:13:52;1.50;;;1.40;;
6378;SDS011;3222;48.858;10.128;2023-11-21T05:16:19;3.13;;;1.70;;
6378;SDS011;3222;48.858;10.128;2023-11-21T05:18:45;1.83;;;1.40;;
6378;SDS011;3222;48.858;10.128;2023-11-21T05:21:10;1.60;;;1.50;;
6378;SDS011;3222;48.858;10.128;2023-11-21T05:23:36;1.40;;;1.30;;
6378;SDS011;3222;48.858;10.128;2023-11-21T05:26:02;2.57;;;1.50;;
6378;SDS011;3222;48.858;10.128;2023-11-21T05:28:29;1.50;;;1.40;;
6378;SDS011;3222;48.858;10.128;2023-11-21T05:30:54;1.70;;;1.60;;
6378;SDS011;3222;48.858;10.128;2023-11-21T05:33:21;1.87;;;1.50;;
6378;SDS011;3222;48.858;10.128;2023-11-21T05:35:46;1.70;;;1.60;;
6378;SDS011;3222;48.858;10.128;2023-11-21T05:38:14;1.60;;;1.30;;
6378;SDS011;3222;48.858;10.128;2023-11-21T05:40:39;1.97;;;1.70;;
6378;SDS011;3222;48.858;10.128;2023-11-21T05:43:06;2.07;;;1.50;;
6378;SDS011;3222;48.858;10.128;2023-11-21T05:45:31;1.90;;;1.80;;
6378;SDS011;3222;48.858;10.128;2023-11-21T05:47:58;2.27;;;1.60;;
6378;SDS011;3222;48.858;10.128;2023-11-21T05:50:24;1.60;;;1.50;;
6378;SDS011;3222;48.858;10.128;2023-11-21T05:52:49;2.10;;;1.60;;
6378;SDS011;3222;48.858;10.128;2023-11-21T05:55:15;3.93;;;1.57;;
6378;SDS011;3222;48.858;10.128;2023-11-21T05:57:42;2.43;;;1.70;;
6378;SDS011;3222;48.858;10.128;2023-11-21T06:00:10;1.93;;;1.80;;
6378;SDS011;3222;48.858;10.128;2023-11-21T06:02:43;3.40;;;1.90;;
6378;SDS011;3222;48.858;10.128;2023-11-21T06:05:10;1.67;;;1.57;;
6378;SDS011;3222;48.858;10.128;2023-11-21T06:07:36;2.80;;;1.67;;
6378;SDS011;3222;48.858;10.128;2023-11-21T06:10:03;2.07;;;1.90;;
6378;SDS011;3222;48.858;10.128;2023-11-21T06:12:36;2.03;;;1.80;;
6378;SDS011;3222;48.858;10.128;2023-11-21T06:15:03;2.60;;;1.90;;
6378;SDS011;3222;48.858;10.128;2023-11-21T06:17:30;2.60;;;2.37;;
6378;SDS011;3222;48.858;10.128;2023-11-21T06:19:56;2.50;;;1.80;;
6378;SDS011;3222;48.858;10.128;2023-11-21T06:22:22;2.10;;;1.67;;
6378;SDS011;3222;48.858;10.128;2023-11-21T06:24:48;2.57;;;1.97;;
6378;SDS011;3222;48.858;10.128;2023-11-21T06:27:14;3.47;;;2.00;;
6378;SDS011;3222;48.858;10.128;2023-11-21T06:29:41;2.53;;;2.00;;
6378;SDS011;3222;48.858;10.128;2023-11-21T06:32:07;2.00;;;1.90;;
6378;SDS011;3222;48.858;10.128;2023-11-21T06:34:33;2.30;;;2.10;;
6378;SDS011;3222;48.858;10.128;2023-11-21T06:36:59;1.93;;;1.80;;
6378;SDS011;3222;48.858;10.128;2023-11-21T06:39:25;1.80;;;1.63;;
6378;SDS011;3222;48.858;10.128;2023-11-21T06:41:50;2.07;;;1.77;;
6378;SDS011;3222;48.858;10.128;2023-11-21T06:44:16;2.30;;;2.00;;
6378;SDS011;3222;48.858;10.128;2023-11-21T06:46:42;4.90;;;2.17;;
6378;SDS011;3222;48.858;10.128;2023-11-21T06:49:08;2.93;;;2.60;;
6378;SDS011;3222;48.858;10.128;2023-11-21T06:51:34;2.40;;;2.23;;
6378;SDS011;3222;48.858;10.128;2023-11-21T06:53:59;2.40;;;2.20;;
6378;SDS011;3222;48.858;10.128;2023-11-21T06:56:25;2.83;;;2.63;;
6378;SDS011;3222;48.858;10.128;2023-11-21T06:58:51;2.30;;;2.10;;
6378;SDS011;3222;48.858;10.128;2023-11-21T07:01:19;2.57;;;2.37;;
6378;SDS011;3222;48.858;10.128;2023-11-21T07:03:44;2.80;;;2.47;;
6378;SDS011;3222;48.858;10.128;2023-11-21T07:06:10;2.90;;;2.60;;
6378;SDS011;3222;48.858;10.128;2023-11-21T07:08:36;3.20;;;2.80;;
6378;SDS011;3222;48.858;10.128;2023-11-21T07:11:03;2.40;;;2.30;;
6378;SDS011;3222;48.858;10.128;2023-11-21T07:13:29;2.70;;;2.33;;
6378;SDS011;3222;48.858;10.128;2023-11-21T07:15:55;4.77;;;2.80;;
6378;SDS011;3222;48.858;10.128;2023-11-21T07:18:22;2.57;;;2.37;;
6378;SDS011;3222;48.858;10.128;2023-11-21T07:20:48;2.70;;;2.20;;
6378;SDS011;3222;48.858;10.128;2023-11-21T07:23:14;2.73;;;2.53;;
6378;SDS011;3222;48.858;10.128;2023-11-21T07:25:40;3.13;;;2.37;;
6378;SDS011;3222;48.858;10.128;2023-11-21T07:28:08;2.20;;;2.00;;
6378;SDS011;3222;48.858;10.128;2023-11-21T07:30:34;3.20;;;2.10;;
6378;SDS011;3222;48.858;10.128;2023-11-21T07:32:59;2.83;;;2.50;;
6378;SDS011;3222;48.858;10.128;2023-11-21T07:35:25;2.60;;;2.40;;
6378;SDS011;3222;48.858;10.128;2023-11-21T07:37:51;2.90;;;2.60;;
6378;SDS011;3222;48.858;10.128;2023-11-21T07:40:17;3.00;;;2.67;;
6378;SDS011;3222;48.858;10.128;2023-11-21T07:42:43;4.60;;;3.00;;
6378;SDS011;3222;48.858;10.128;2023-11-21T07:45:09;3.20;;;2.90;;
6378;SDS011;3222;48.858;10.128;2023-11-21T07:47:36;3.40;;;3.10;;
6378;SDS011;3222;48.858;10.128;2023-11-21T07:50:04;3.17;;;2.80;;
6378;SDS011;3222;48.858;10.128;2023-11-21T07:52:32;3.43;;;2.90;;
6378;SDS011;3222;48.858;10.128;2023-11-21T07:54:58;3.27;;;2.97;;
6378;SDS011;3222;48.858;10.128;2023-11-21T07:57:24;2.60;;;2.40;;
6378;SDS011;3222;48.858;10.128;2023-11-21T07:59:50;2.63;;;2.43;;
6378;SDS011;3222;48.858;10.128;2023-11-21T08:02:18;2.30;;;2.20;;
6378;SDS011;3222;48.858;10.128;2023-11-21T08:04:44;2.93;;;2.57;;
6378;SDS011;3222;48.858;10.128;2023-11-21T08:07:10;2.73;;;2.20;;
6378;SDS011;3222;48.858;10.128;2023-11-21T08:09:36;2.70;;;2.50;;
6378;SDS011;3222;48.858;10.128;2023-11-21T08:12:01;2.17;;;2.07;;
6378;SDS011;3222;48.858;10.128;2023-11-21T08:14:28;2.40;;;2.20;;
6378;SDS011;3222;48.858;10.128;2023-11-21T08:16:53;2.30;;;2.10;;
6378;SDS011;3222;48.858;10.128;2023-11-21T08:19:23;2.80;;;2.30;;
6378;SDS011;3222;48.858;10.128;2023-11-21T08:21:50;2.23;;;2.00;;
6378;SDS011;3222;48.858;10.128;2023-11-21T08:24:16;2.50;;;2.30;;
6378;SDS011;3222;48.858;10.128;2023-11-21T08:26:41;2.60;;;2.40;;
6378;SDS011;3222;48.858;10.128;2023-11-21T08:29:08;2.57;;;2.37;;
6378;SDS011;3222;48.858;10.128;2023-11-21T08:31:33;2.50;;;2.30;;
6378;SDS011;3222;48.858;10.128;2023-11-21T08:34:00;2.67;;;2.47;;
6378;SDS011;3222;48.858;10.128;2023-11-21T08:36:27;4.17;;;3.10;;
6378;SDS011;3222;48.858;10.128;2023-11-21T08:38:53;3.73;;;3.37;;
6378;SDS011;3222;48.858;10.128;2023-11-21T08:41:19;3.60;;;3.30;;
6378;SDS011;3222;48.858;10.128;2023-11-21T08:43:51;3.67;;;3.10;;
6378;SDS011;3222;48.858;10.128;2023-11-21T08:46:19;3.30;;;3.00;;
6378;SDS011;3222;48.858;10.128;2023-11-21T08:48:44;3.23;;;2.93;;
6378;SDS011;3222;48.858;10.128;2023-11-21T08:51:10;2.97;;;2.67;;
6378;SDS011;3222;48.858;10.128;2023-11-21T08:53:39;2.97;;;2.77;;
6378;SDS011;3222;48.858;10.128;2023-11-21T08:56:05;2.97;;;2.77;;
6378;SDS011;3222;48.858;10.128;2023-11-21T08:58:31;3.03;;;2.70;;
6378;SDS011;3222;48.858;10.128;2023-11-21T09:00:57;2.80;;;2.60;;
6378;SDS011;3222;48.858;10.128;2023-11-21T09:03:23;2.60;;;2.47;;
6378;SDS011;3222;48.858;10.128;2023-11-21T09:05:50;2.63;;;2.40;;
6378;SDS011;3222;48.858;10.128;2023-11-21T09:08:16;2.93;;;2.57;;
6378;SDS011;3222;48.858;10.128;2023-11-21T09:10:42;2.90;;;2.27;;
6378;SDS011;3222;48.858;10.128;2023-11-21T09:13:10;2.50;;;2.30;;
6378;SDS011;3222;48.858;10.128;2023-11-21T09:15:35;3.00;;;2.70;;
6378;SDS011;3222;48.858;10.128;2023-11-21T09:18:01;2.80;;;2.60;;
6378;SDS011;3222;48.858;10.128;2023-11-21T09:20:27;3.10;;;2.90;;
6378;SDS011;3222;48.858;10.128;2023-11-21T09:22:53;2.70;;;2.50;;
6378;SDS011;3222;48.858;10.128;2023-11-21T09:25:20;2.60;;;2.40;;
6378;SDS011;3222;48.858;10.128;2023-11-21T09:27:46;2.50;;;2.30;;
6378;SDS011;3222;48.858;10.128;2023-11-21T09:30:12;3.53;;;2.47;;
6378;SDS011;3222;48.858;10.128;2023-11-21T09:32:39;3.00;;;2.70;;
6378;SDS011;3222;48.858;10.128;2023-11-21T09:35:05;2.53;;;2.33;;
6378;SDS011;3222;48.858;10.128;2023-11-21T09:37:33;2.53;;;2.40;;
6378;SDS011;3222;48.858;10.128;2023-11-21T09:39:59;5.20;;;2.53;;
6378;SDS011;3222;48.858;10.128;2023-11-21T09:42:25;3.03;;;2.33;;
6378;SDS011;3222;48.858;10.128;2023-11-21T09:47:54;2.40;;;2.27;;
6378;SDS011;3222;48.858;10.128;2023-11-21T09:50:21;2.43;;;2.33;;
6378;SDS011;3222;48.858;10.128;2023-11-21T09:55:13;2.23;;;2.03;;
6378;SDS011;3222;48.858;10.128;2023-11-21T09:57:43;2.33;;;2.13;;
6378;SDS011;3222;48.858;10.128;2023-11-21T10:00:10;2.20;;;2.00;;
6378;SDS011;3222;48.858;10.128;2023-11-21T10:02:37;1.97;;;1.73;;
6378;SDS011;3222;48.858;10.128;2023-11-21T10:05:04;2.33;;;2.13;;
6378;SDS011;3222;48.858;10.128;2023-11-21T10:07:31;2.00;;;1.90;;
6378;SDS011;3222;48.858;10.128;2023-11-21T10:09:59;2.40;;;2.20;;
6378;SDS011;3222;48.858;10.128;2023-11-21T10:12:26;2.50;;;2.30;;
6378;SDS011;3222;48.858;10.128;2023-11-21T10:14:54;2.50;;;2.30;;
6378;SDS011;3222;48.858;10.128;2023-11-21T10:17:21;2.47;;;2.27;;
6378;SDS011;3222;48.858;10.128;2023-11-21T10:19:52;2.50;;;2.30;;
6378;SDS011;3222;48.858;10.128;2023-11-21T10:22:19;2.20;;;2.00;;
6378;SDS011;3222;48.858;10.128;2023-11-21T10:24:45;2.03;;;1.93;;
6378;SDS011;3222;48.858;10.128;2023-11-21T10:27:11;2.00;;;1.90;;
6378;SDS011;3222;48.858;10.128;2023-11-21T10:29:38;2.10;;;2.00;;
6378;SDS011;3222;48.858;10.128;2023-11-21T10:32:04;1.90;;;1.80;;
6378;SDS011;3222;48.858;10.128;2023-11-21T10:34:31;1.93;;;1.80;;
6378;SDS011;3222;48.858;10.128;2023-11-21T10:36:57;2.47;;;1.90;;
6378;SDS011;3222;48.858;10.128;2023-11-21T10:39:23;3.00;;;1.90;;
6378;SDS011;3222;48.858;10.128;2023-11-21T10:41:53;1.97;;;1.87;;
6378;SDS011;3222;48.858;10.128;2023-11-21T10:44:20;2.37;;;2.13;;
6378;SDS011;3222;48.858;10.128;2023-11-21T10:46:51;2.33;;;2.13;;
6378;SDS011;3222;48.858;10.128;2023-11-21T10:49:20;2.20;;;2.00;;
6378;SDS011;3222;48.858;10.128;2023-11-21T10:51:49;2.00;;;1.90;;
6378;SDS011;3222;48.858;10.128;2023-11-21T10:54:20;2.17;;;2.07;;
6378;SDS011;3222;48.858;10.128;2023-11-21T10:56:46;3.43;;;2.37;;
6378;SDS011;3222;48.858;10.128;2023-11-21T10:59:16;3.17;;;2.87;;
6378;SDS011;3222;48.858;10.128;2023-11-21T11:01:43;4.20;;;2.90;;
6378;SDS011;3222;48.858;10.128;2023-11-21T11:04:11;3.30;;;2.90;;
6378;SDS011;3222;48.858;10.128;2023-11-21T11:06:45;3.70;;;3.07;;
6378;SDS011;3222;48.858;10.128;2023-11-21T11:09:19;2.93;;;2.40;;
6378;SDS011;3222;48.858;10.128;2023-11-21T11:11:45;2.63;;;2.33;;
6378;SDS011;3222;48.858;10.128;2023-11-21T11:14:12;3.37;;;2.50;;
6378;SDS011;3222;48.858;10.128;2023-11-21T11:16:39;3.57;;;2.50;;
6378;SDS011;3222;48.858;10.128;2023-11-21T11:19:06;2.83;;;2.20;;
6378;SDS011;3222;48.858;10.128;2023-11-21T11:21:37;2.77;;;2.50;;
6378;SDS011;3222;48.858;10.128;2023-11-21T11:26:47;2.87;;;2.50;;
6378;SDS011;3222;48.858;10.128;2023-11-21T11:29:33;2.70;;;2.50;;
6378;SDS011;3222;48.858;10.128;2023-11-21T11:34:58;2.50;;;2.30;;
6378;SDS011;3222;48.858;10.128;2023-11-21T11:37:35;2.40;;;2.20;;
6378;SDS011;3222;48.858;10.128;2023-11-21T11:40:01;2.60;;;2.40;;
6378;SDS011;3222;48.858;10.128;2023-11-21T11:42:32;2.77;;;2.57;;
6378;SDS011;3222;48.858;10.128;2023-11-21T11:44:57;2.80;;;2.50;;
6378;SDS011;3222;48.858;10.128;2023-11-21T11:52:39;2.33;;;2.13;;
6378;SDS011;3222;48.858;10.128;2023-11-21T11:55:07;4.23;;;2.40;;
6378;SDS011;3222;48.858;10.128;2023-11-21T11:57:38;2.33;;;2.13;;
6378;SDS011;3222;48.858;10.128;2023-11-21T12:00:18;2.27;;;2.10;;
6378;SDS011;3222;48.858;10.128;2023-11-21T12:02:46;2.20;;;2.10;;
6378;SDS011;3222;48.858;10.128;2023-11-21T12:05:15;1.80;;;1.70;;
6378;SDS011;3222;48.858;10.128;2023-11-21T12:07:50;2.23;;;2.00;;
6378;SDS011;3222;48.858;10.128;2023-11-21T12:10:19;7.07;;;2.10;;
6378;SDS011;3222;48.858;10.128;2023-11-21T12:12:59;1.97;;;1.87;;
6378;SDS011;3222;48.858;10.128;2023-11-21T12:15:32;2.10;;;1.90;;
6378;SDS011;3222;48.858;10.128;2023-11-21T12:18:00;1.90;;;1.80;;
6378;SDS011;3222;48.858;10.128;2023-11-21T12:20:26;1.90;;;1.80;;
6378;SDS011;3222;48.858;10.128;2023-11-21T12:22:55;1.90;;;1.80;;
6378;SDS011;3222;48.858;10.128;2023-11-21T12:25:26;3.63;;;1.90;;
6378;SDS011;3222;48.858;10.128;2023-11-21T12:27:57;1.80;;;1.70;;
6378;SDS011;3222;48.858;10.128;2023-11-21T12:30:25;1.90;;;1.80;;
6378;SDS011;3222;48.858;10.128;2023-11-21T12:33:00;2.03;;;1.93;;
6378;SDS011;3222;48.858;10.128;2023-11-21T12:35:27;2.50;;;2.30;;
6378;SDS011;3222;48.858;10.128;2023-11-21T12:37:55;2.10;;;2.00;;
6378;SDS011;3222;48.858;10.128;2023-11-21T12:40:24;2.50;;;2.30;;
6378;SDS011;3222;48.858;10.128;2023-11-21T12:42:51;2.27;;;2.10;;
6378;SDS011;3222;48.858;10.128;2023-11-21T12:45:25;2.23;;;2.13;;
6378;SDS011;3222;48.858;10.128;2023-11-21T12:47:55;2.27;;;2.10;;
6378;SDS011;3222;48.858;10.128;2023-11-21T12:50:30;2.13;;;2.00;;
6378;SDS011;3222;48.858;10.128;2023-11-21T12:53:00;2.50;;;2.10;;
6378;SDS011;3222;48.858;10.128;2023-11-21T12:55:29;2.20;;;2.03;;
6378;SDS011;3222;48.858;10.128;2023-11-21T12:57:56;2.00;;;1.90;;
6378;SDS011;3222;48.858;10.128;2023-11-21T13:00:32;1.60;;;1.60;;
6378;SDS011;3222;48.858;10.128;2023-11-21T13:03:02;2.17;;;1.53;;
6378;SDS011;3222;48.858;10.128;2023-11-21T13:05:30;1.80;;;1.70;;
6378;SDS011;3222;48.858;10.128;2023-11-21T13:08:00;1.73;;;1.67;;
6378;SDS011;3222;48.858;10.128;2023-11-21T13:10:32;1.73;;;1.30;;
6378;SDS011;3222;48.858;10.128;2023-11-21T13:13:02;1.03;;;1.03;;
6378;SDS011;3222;48.858;10.128;2023-11-21T13:15:39;0.80;;;0.80;;
6378;SDS011;3222;48.858;10.128;2023-11-21T13:18:06;0.90;;;0.90;;
6378;SDS011;3222;48.858;10.128;2023-11-21T13:20:32;1.07;;;1.07;;
6378;SDS011;3222;48.858;10.128;2023-11-21T13:22:59;1.33;;;0.90;;
6378;SDS011;3222;48.858;10.128;2023-11-21T13:25:26;1.00;;;1.00;;
6378;SDS011;3222;48.858;10.128;2023-11-21T13:27:59;1.00;;;1.00;;
6378;SDS011;3222;48.858;10.128;2023-11-21T13:30:28;1.00;;;1.00;;
6378;SDS011;3222;48.858;10.128;2023-11-21T13:33:00;1.00;;;1.00;;
6378;SDS011;3222;48.858;10.128;2023-11-21T13:35:27;0.80;;;0.80;;
6378;SDS011;3222;48.858;10.128;2023-11-21T13:40:32;0.80;;;0.80;;
6378;SDS011;3222;48.858;10.128;2023-11-21T13:43:05;0.83;;;0.83;;
6378;SDS011;3222;48.858;10.128;2023-11-21T13:45:35;0.90;;;0.90;;
6378;SDS011;3222;48.858;10.128;2023-11-21T13:48:01;0.80;;;0.80;;
6378;SDS011;3222;48.858;10.128;2023-11-21T13:50:27;0.80;;;0.80;;
6378;SDS011;3222;48.858;10.128;2023-11-21T13:53:01;0.80;;;0.80;;
6378;SDS011;3222;48.858;10.128;2023-11-21T13:55:34;0.80;;;0.80;;
6378;SDS011;3222;48.858;10.128;2023-11-21T13:58:01;0.80;;;0.80;;
6378;SDS011;3222;48.858;10.128;2023-11-21T14:00:29;0.70;;;0.70;;
6378;SDS011;3222;48.858;10.128;2023-11-21T14:03:11;0.80;;;0.80;;
6378;SDS011;3222;48.858;10.128;2023-11-21T14:05:47;0.80;;;0.80;;
6378;SDS011;3222;48.858;10.128;2023-11-21T14:08:19;0.77;;;0.77;;
6378;SDS011;3222;48.858;10.128;2023-11-21T14:10:46;0.80;;;0.80;;
6378;SDS011;3222;48.858;10.128;2023-11-21T14:13:18;1.10;;;1.10;;
6378;SDS011;3222;48.858;10.128;2023-11-21T14:15:48;1.73;;;1.17;;
6378;SDS011;3222;48.858;10.128;2023-11-21T14:18:17;1.10;;;1.10;;
6378;SDS011;3222;48.858;10.128;2023-11-21T14:20:51;1.10;;;1.10;;
6378;SDS011;3222;48.858;10.128;2023-11-21T14:23:16;1.30;;;1.30;;
6378;SDS011;3222;48.858;10.128;2023-11-21T14:25:43;1.10;;;1.10;;
6378;SDS011;3222;48.858;10.128;2023-11-21T14:28:09;1.10;;;1.10;;
6378;SDS011;3222;48.858;10.128;2023-11-21T14:30:37;1.17;;;1.17;;
6378;SDS011;3222;48.858;10.128;2023-11-21T14:33:04;1.00;;;1.00;;
6378;SDS011;3222;48.858;10.128;2023-11-21T14:35:31;1.20;;;1.20;;
6378;SDS011;3222;48.858;10.128;2023-11-21T14:37:58;1.43;;;1.37;;
6378;SDS011;3222;48.858;10.128;2023-11-21T14:40:25;1.30;;;1.30;;
6378;SDS011;3222;48.858;10.128;2023-11-21T14:42:54;1.20;;;1.20;;
6378;SDS011;3222;48.858;10.128;2023-11-21T14:45:22;1.00;;;1.00;;
6378;SDS011;3222;48.858;10.128;2023-11-21T14:47:51;1.13;;;1.13;;
6378;SDS011;3222;48.858;10.128;2023-11-21T14:50:31;1.00;;;1.00;;
6378;SDS011;3222;48.858;10.128;2023-11-21T14:53:06;1.20;;;1.20;;
6378;SDS011;3222;48.858;10.128;2023-11-21T14:55:33;1.10;;;1.10;;
6378;SDS011;3222;48.858;10.128;2023-11-21T14:58:22;1.50;;;1.40;;
6378;SDS011;3222;48.858;10.128;2023-11-21T15:00:57;1.50;;;1.43;;
6378;SDS011;3222;48.858;10.128;2023-11-21T15:03:27;1.50;;;1.40;;
6378;SDS011;3222;48.858;10.128;2023-11-21T15:05:57;1.60;;;1.60;;
6378;SDS011;3222;48.858;10.128;2023-11-21T15:08:44;1.57;;;1.57;;
6378;SDS011;3222;48.858;10.128;2023-11-21T15:11:35;2.10;;;2.00;;
6378;SDS011;3222;48.858;10.128;2023-11-21T15:14:02;1.90;;;1.80;;
6378;SDS011;3222;48.858;10.128;2023-11-21T15:16:34;2.80;;;2.57;;
6378;SDS011;3222;48.858;10.128;2023-11-21T15:19:06;2.60;;;2.40;;
6378;SDS011;3222;48.858;10.128;2023-11-21T15:21:35;2.73;;;2.50;;